Erofej Pavlovic, Russia
Current Conditions -  °F | °C
As of 6:30 AM on Thursday 27 Nov 2014 (Local Time) from UHBB Reporting Station
Clear Clear  
Wind Chill: -3°   Ceiling: Unl
Heat Index: 12°   Visibility: 6mi
Dew Point:   Wind: 13mph
Humidity: 62%   Direction: 270°W
Pressure: 29.88"   Gusts: NA
Location:  53.97°N, 121.93°E
Report Text: UHBB 262130Z 27006MPS 240V300 CAVOK M11/M17 Q1012 NOSIG RMKQFE742/0989 36410250
Loading
Personal Weather Stations






























Interactive Weather Map New forecast layout! Learn more

10-Day Weather Forecast

Advertisements
Track Severe Weather on mobile